This is the latest recevied weather packets stored in our database for station/object N8RJC-13. If no packets are shown the sender has not sent any weather packets the latest 1 day(s).
| Time | Temp. | Humidity | Pressure | Rain* | Wind** | Luminosity | Snow |
|---|---|---|---|---|---|---|---|
| 1778053941 | 6.67° C | 94% | 984.9 hPa | 2.79 mm | 1.34 m/s, 31° | - | - |
| 1778053821 | 6.67° C | 94% | 984.9 hPa | 2.79 mm | 1.34 m/s, 31° | - | - |
| 1778053761 | 7.22° C | 94% | 984.8 hPa | 1.02 mm | 2.24 m/s, 4° | - | - |
| 1778053701 | 7.22° C | 94% | 984.8 hPa | 1.02 mm | 2.24 m/s, 4° | - | - |
| 1778053581 | 7.22° C | 94% | 984.8 hPa | 1.02 mm | 2.24 m/s, 4° | - | - |
| 1778053521 | 7.22° C | 94% | 984.8 hPa | 1.02 mm | 2.24 m/s, 4° | - | - |
| 1778053461 | 7.22° C | 94% | 984.9 hPa | 1.78 mm | 0.89 m/s, 20° | - | - |
| 1778053401 | 7.22° C | 94% | 984.9 hPa | 1.78 mm | 0.89 m/s, 20° | - | - |
| 1778053341 | 7.22° C | 94% | 984.9 hPa | 1.78 mm | 0.89 m/s, 20° | - | - |
| 1778053101 | 7.22° C | 94% | 985.1 hPa | 1.78 mm | 1.34 m/s, 19° | - | - |
| 1778052981 | 7.22° C | 94% | 985.1 hPa | 1.78 mm | 1.34 m/s, 19° | - | - |
| 1778052741 | 7.22° C | 94% | 985.1 hPa | 2.79 mm | 0.45 m/s, 18° | - | - |
| 1778052681 | 7.22° C | 94% | 985.1 hPa | 2.79 mm | 0.45 m/s, 18° | - | - |
| 1778052621 | 7.22° C | 94% | 985.1 hPa | 2.79 mm | 0.45 m/s, 18° | - | - |
| 1778052561 | 7.22° C | 94% | 984.9 hPa | 4.57 mm | 0.45 m/s, 30° | - | - |
| 1778052501 | 7.22° C | 94% | 984.9 hPa | 4.57 mm | 0.45 m/s, 30° | - | - |
| 1778052441 | 7.22° C | 94% | 984.9 hPa | 4.57 mm | 0.45 m/s, 30° | - | - |
| 1778052321 | 7.22° C | 94% | 984.9 hPa | 4.57 mm | 0.45 m/s, 30° | - | - |
| 1778052261 | 7.78° C | 94% | 984.7 hPa | 2.79 mm | 2.24 m/s, 347° | - | - |
| 1778052201 | 7.78° C | 94% | 984.7 hPa | 2.79 mm | 2.24 m/s, 347° | - | - |
| 1778052141 | 7.78° C | 94% | 984.7 hPa | 2.79 mm | 2.24 m/s, 347° | - | - |
| 1778052081 | 7.78° C | 94% | 984.7 hPa | 2.79 mm | 2.24 m/s, 347° | - | - |
| 1778052021 | 7.78° C | 94% | 984.7 hPa | 2.79 mm | 2.24 m/s, 347° | - | - |
| 1778051901 | 7.78° C | 94% | 984.6 hPa | 2.79 mm | 2.24 m/s, 347° | - | - |
| 1778051841 | 7.78° C | 94% | 984.6 hPa | 2.79 mm | 2.24 m/s, 347° | - | - |
* Rain latest hour (hover to see other rain measurements)
** Current wind speed in m/s (hover to see current wind gust speed)